createdAt,value
2022-12-10T00:01:35.104Z,65.95
2022-12-10T00:04:36.615Z,66.51
2022-12-10T00:07:38.075Z,66.72
2022-12-10T00:10:42.256Z,66.54
2022-12-10T00:13:44.516Z,66.44
2022-12-10T00:16:46.068Z,66.65
2022-12-10T00:19:47.705Z,66.24
2022-12-10T00:22:49.183Z,67.01
2022-12-10T00:25:51.098Z,66.44
2022-12-10T00:28:53.867Z,66.98
2022-12-10T00:31:55.345Z,67.67
2022-12-10T00:34:56.820Z,67.01
2022-12-10T00:37:58.247Z,67.14
2022-12-10T00:41:00.368Z,68.02
2022-12-10T00:44:01.909Z,67.54
2022-12-10T00:47:03.995Z,66.98
2022-12-10T00:50:06.064Z,67.76
2022-12-10T00:53:07.674Z,67.80
2022-12-10T00:56:10.633Z,66.70
2022-12-10T00:59:12.179Z,66.71
2022-12-10T01:02:13.744Z,66.90
2022-12-10T01:05:17.561Z,66.68
2022-12-10T01:08:19.112Z,66.89
2022-12-10T01:11:22.637Z,67.15
2022-12-10T01:14:29.915Z,66.96
2022-12-10T01:17:31.388Z,66.88
2022-12-10T01:20:36.817Z,67.18
2022-12-10T01:23:40.483Z,67.61
2022-12-10T01:26:42.014Z,66.99
2022-12-10T01:29:43.490Z,66.80
2022-12-10T01:32:44.948Z,67.48
2022-12-10T01:35:46.611Z,67.64
2022-12-10T01:38:50.446Z,67.79
2022-12-10T01:41:55.427Z,67.73
2022-12-10T01:45:00.865Z,66.96
2022-12-10T01:48:07.798Z,67.18
2022-12-10T01:51:11.644Z,66.87
2022-12-10T01:54:18.522Z,67.11
2022-12-10T01:57:24.689Z,67.37
2022-12-10T02:00:26.263Z,66.96
2022-12-10T02:03:53.744Z,67.59
2022-12-10T02:07:02.632Z,66.88
2022-12-10T02:10:41.954Z,66.32
2022-12-10T02:13:50.978Z,66.32
2022-12-10T02:17:17.823Z,66.78
2022-12-10T02:20:48.348Z,67.04
2022-12-10T02:23:56.140Z,67.64
2022-12-10T02:27:16.776Z,66.94
2022-12-10T02:30:19.019Z,66.79
2022-12-10T02:33:23.642Z,66.89
2022-12-10T02:36:29.792Z,66.21
2022-12-10T02:39:39.106Z,66.76
2022-12-10T02:42:45.591Z,66.43
2022-12-10T02:45:47.869Z,66.18
2022-12-10T02:48:51.050Z,65.87
2022-12-10T02:51:54.014Z,66.34
2022-12-10T02:54:56.822Z,66.13
2022-12-10T02:58:21.291Z,66.00
2022-12-10T03:01:40.617Z,66.49
2022-12-10T03:05:08.617Z,66.17
2022-12-10T03:08:22.153Z,65.97
2022-12-10T03:11:24.370Z,66.09
2022-12-10T03:14:31.250Z,65.87
2022-12-10T03:17:33.442Z,66.21
2022-12-10T03:20:39.590Z,66.29
2022-12-10T03:23:46.030Z,66.40
2022-12-10T03:26:49.555Z,66.65
2022-12-10T03:29:57.357Z,66.29
2022-12-10T03:32:58.923Z,66.56
2022-12-10T03:36:01.047Z,66.77
2022-12-10T03:39:03.108Z,66.78
2022-12-10T03:42:06.601Z,67.08
2022-12-10T03:45:08.807Z,66.56
2022-12-10T03:48:10.283Z,66.24
2022-12-10T03:51:11.844Z,66.69
2022-12-10T03:54:13.293Z,66.62
2022-12-10T03:57:15.156Z,66.78
2022-12-10T04:00:16.867Z,66.46
2022-12-10T04:03:18.321Z,66.21
2022-12-10T04:06:20.093Z,66.17
2022-12-10T04:09:21.652Z,66.38
2022-12-10T04:12:23.117Z,66.44
2022-12-10T04:15:43.223Z,66.33
2022-12-10T04:18:44.657Z,66.44
2022-12-10T04:22:06.366Z,67.40
2022-12-10T04:25:29.910Z,67.05
2022-12-10T04:28:31.415Z,67.31
2022-12-10T04:31:32.828Z,66.61
2022-12-10T04:34:34.534Z,67.93
2022-12-10T04:37:36.032Z,67.45
2022-12-10T04:40:37.466Z,67.32
2022-12-10T04:43:38.906Z,67.21
2022-12-10T04:46:40.504Z,66.86
2022-12-10T04:49:42.223Z,67.04
2022-12-10T04:52:44.707Z,67.19
2022-12-10T04:55:46.138Z,67.44
2022-12-10T04:58:47.675Z,67.05
2022-12-10T05:01:49.706Z,66.86
2022-12-10T05:04:51.267Z,67.13
2022-12-10T05:07:52.708Z,67.57
2022-12-10T05:10:54.143Z,67.29
2022-12-10T05:13:56.781Z,67.12
2022-12-10T05:16:58.285Z,67.15
2022-12-10T05:19:59.711Z,67.86
2022-12-10T05:23:19.612Z,67.77
2022-12-10T05:26:23.765Z,68.07
2022-12-10T05:29:28.057Z,68.27
2022-12-10T05:32:29.515Z,68.25
2022-12-10T05:35:31.182Z,68.36
2022-12-10T05:38:34.146Z,67.60
2022-12-10T05:41:38.348Z,67.93
2022-12-10T05:44:39.855Z,67.90
2022-12-10T05:47:41.415Z,67.98
2022-12-10T05:50:43.549Z,68.49
2022-12-10T05:53:45.296Z,68.74
2022-12-10T05:56:46.754Z,68.85
2022-12-10T05:59:48.174Z,68.38
2022-12-10T06:02:52.718Z,68.45
2022-12-10T06:05:54.917Z,68.68
2022-12-10T06:08:56.989Z,69.47
2022-12-10T06:11:58.485Z,68.49
2022-12-10T06:14:59.942Z,68.52
2022-12-10T06:18:01.460Z,68.30
2022-12-10T06:21:07.969Z,68.34
2022-12-10T06:24:09.444Z,68.86
2022-12-10T06:27:10.992Z,68.85
2022-12-10T06:30:12.632Z,69.03
2022-12-10T06:33:14.051Z,69.40
2022-12-10T06:36:17.696Z,69.32
2022-12-10T06:39:19.097Z,68.70
2022-12-10T06:42:21.723Z,67.87
2022-12-10T06:45:23.367Z,68.74
2022-12-10T06:48:24.995Z,69.39
2022-12-10T06:51:26.601Z,69.10
2022-12-10T06:54:28.793Z,68.79
2022-12-10T06:57:30.368Z,68.81
2022-12-10T07:00:32.090Z,68.65
2022-12-10T07:03:34.032Z,68.36
2022-12-10T07:06:35.580Z,68.55
2022-12-10T07:09:37.156Z,68.29
2022-12-10T07:12:38.906Z,68.77
2022-12-10T07:15:40.370Z,68.59
2022-12-10T07:18:46.183Z,68.53
2022-12-10T07:21:52.067Z,68.91
2022-12-10T07:24:53.624Z,68.85
2022-12-10T07:27:57.856Z,69.36
2022-12-10T07:31:04.330Z,69.31
2022-12-10T07:34:05.944Z,68.54
2022-12-10T07:37:07.822Z,67.77
2022-12-10T07:40:12.022Z,68.66
2022-12-10T07:43:13.521Z,68.81
2022-12-10T07:46:22.020Z,69.99
2022-12-10T07:49:23.759Z,69.98
2022-12-10T07:52:25.180Z,69.23
2022-12-10T07:55:26.623Z,69.04
2022-12-10T07:58:28.515Z,68.37
2022-12-10T08:01:29.931Z,68.41
2022-12-10T08:04:31.433Z,68.35
2022-12-10T08:07:34.061Z,68.88
2022-12-10T08:10:39.844Z,68.84
2022-12-10T08:13:41.997Z,69.16
2022-12-10T08:16:43.551Z,68.14
2022-12-10T08:19:45.001Z,69.21
2022-12-10T08:22:46.568Z,69.16
2022-12-10T08:25:47.976Z,69.20
2022-12-10T08:28:50.346Z,68.23
2022-12-10T08:31:51.843Z,68.51
2022-12-10T08:34:53.325Z,68.85
2022-12-10T08:37:54.730Z,68.56
2022-12-10T08:40:56.322Z,69.02
2022-12-10T08:43:57.745Z,68.82
2022-12-10T08:46:59.184Z,69.23
2022-12-10T08:50:00.807Z,68.97
2022-12-10T08:53:02.419Z,68.65
2022-12-10T08:56:04.126Z,69.18
2022-12-10T08:59:06.018Z,69.46
2022-12-10T09:02:14.033Z,69.58
2022-12-10T09:05:15.834Z,69.06
2022-12-10T09:08:17.357Z,68.96
2022-12-10T09:11:30.484Z,69.51
2022-12-10T09:14:31.974Z,69.04
2022-12-10T09:17:35.783Z,69.06
2022-12-10T09:20:37.936Z,69.21
2022-12-10T09:23:40.688Z,68.91
2022-12-10T09:26:42.090Z,69.37
2022-12-10T09:29:43.556Z,69.70
2022-12-10T09:32:45.644Z,70.20
2022-12-10T09:35:47.102Z,69.56
2022-12-10T09:38:49.568Z,68.91
2022-12-10T09:41:50.854Z,69.05
2022-12-10T09:45:21.433Z,68.77
2022-12-10T09:48:33.241Z,68.95
2022-12-10T09:51:37.868Z,69.28
2022-12-10T09:54:45.121Z,70.26
2022-12-10T09:57:50.657Z,69.85
2022-12-10T10:01:07.149Z,69.20
2022-12-10T10:04:10.033Z,68.36
2022-12-10T10:07:21.635Z,68.69
2022-12-10T10:10:31.752Z,68.81
2022-12-10T10:13:59.441Z,67.67
2022-12-10T10:17:04.832Z,67.97
2022-12-10T10:20:06.868Z,68.36
2022-12-10T10:23:13.432Z,67.91
2022-12-10T10:26:14.946Z,68.79
2022-12-10T10:29:19.816Z,68.46
2022-12-10T10:32:50.151Z,69.12
2022-12-10T10:35:58.898Z,68.68
2022-12-10T10:39:28.405Z,68.98
2022-12-10T10:42:41.881Z,69.21
2022-12-10T10:45:49.363Z,69.08
2022-12-10T10:48:51.815Z,68.48
2022-12-10T10:51:55.168Z,68.05
2022-12-10T10:54:56.890Z,69.06
2022-12-10T10:57:58.858Z,68.16
2022-12-10T11:01:08.726Z,68.01
2022-12-10T11:04:10.492Z,68.89
2022-12-10T11:07:21.616Z,68.77
2022-12-10T11:10:25.926Z,68.67
2022-12-10T11:13:29.902Z,68.77
2022-12-10T11:16:31.369Z,69.23
2022-12-10T11:19:32.861Z,68.94
2022-12-10T11:22:34.825Z,67.92
2022-12-10T11:25:51.063Z,68.60
2022-12-10T11:29:21.870Z,68.71
2022-12-10T11:32:35.574Z,69.16
2022-12-10T11:35:55.598Z,69.16
2022-12-10T11:39:15.272Z,68.38
2022-12-10T11:42:28.724Z,68.06
2022-12-10T11:45:42.397Z,68.25
2022-12-10T11:48:52.876Z,68.70
2022-12-10T11:52:07.097Z,68.89
2022-12-10T11:55:36.428Z,68.64
2022-12-10T11:58:53.003Z,68.99
2022-12-10T12:02:20.826Z,68.93
2022-12-10T12:05:28.691Z,68.98
2022-12-10T12:08:50.791Z,68.80
2022-12-10T12:11:58.002Z,68.92
2022-12-10T12:15:06.400Z,68.90
2022-12-10T12:18:26.957Z,69.17
2022-12-10T12:21:28.457Z,69.19
2022-12-10T12:24:36.965Z,69.26
2022-12-10T12:27:47.871Z,69.04
2022-12-10T12:31:00.531Z,68.64
2022-12-10T12:34:16.703Z,68.02
2022-12-10T12:37:23.219Z,68.93
2022-12-10T12:40:40.976Z,69.25
2022-12-10T12:43:55.960Z,68.70
2022-12-10T12:47:03.154Z,68.42
2022-12-10T12:50:12.655Z,68.58
2022-12-10T12:53:17.056Z,69.09
2022-12-10T12:56:38.216Z,68.64
2022-12-10T13:00:08.274Z,69.05
2022-12-10T13:03:25.367Z,68.92
2022-12-10T13:06:33.334Z,69.35
2022-12-10T13:09:43.502Z,70.01
2022-12-10T13:13:08.330Z,69.76
2022-12-10T13:16:35.868Z,68.75
2022-12-10T13:19:37.519Z,68.38
2022-12-10T13:22:38.907Z,69.04
2022-12-10T13:25:57.898Z,68.86
2022-12-10T13:29:24.546Z,68.76
2022-12-10T13:32:32.676Z,68.62
2022-12-10T13:35:44.528Z,68.84
2022-12-10T13:39:19.174Z,69.04
2022-12-10T13:42:47.657Z,68.81
2022-12-10T13:45:49.132Z,69.21
2022-12-10T13:48:55.702Z,69.24
2022-12-10T13:52:07.555Z,69.22
2022-12-10T13:55:20.867Z,68.92
2022-12-10T13:58:34.526Z,69.12
2022-12-10T14:01:43.647Z,68.95
2022-12-10T14:04:51.122Z,69.70
2022-12-10T14:07:57.188Z,69.69
2022-12-10T14:11:00.510Z,68.95
2022-12-10T14:14:03.141Z,68.44
2022-12-10T14:17:22.561Z,68.36
2022-12-10T14:20:26.065Z,68.27
2022-12-10T14:23:39.867Z,67.99
2022-12-10T14:26:45.786Z,67.71
2022-12-10T14:30:00.029Z,67.59
2022-12-10T14:33:01.512Z,67.92
2022-12-10T14:36:03.536Z,68.10
2022-12-10T14:39:05.279Z,67.55
2022-12-10T14:42:07.933Z,66.97
2022-12-10T14:45:15.376Z,66.72
2022-12-10T14:48:17.425Z,66.71
2022-12-10T14:51:24.589Z,66.82
2022-12-10T14:54:33.898Z,66.47
2022-12-10T14:57:41.029Z,66.85
2022-12-10T15:00:42.552Z,67.03
2022-12-10T15:03:48.779Z,67.28
2022-12-10T15:06:50.313Z,67.38
2022-12-10T15:09:54.690Z,67.49
2022-12-10T15:12:57.063Z,67.30
2022-12-10T15:15:58.724Z,67.56
2022-12-10T15:19:29.409Z,67.00
2022-12-10T15:22:34.474Z,67.10
2022-12-10T15:25:46.116Z,67.23
2022-12-10T15:28:50.155Z,67.19
2022-12-10T15:31:58.272Z,67.19
2022-12-10T15:35:04.831Z,66.87
2022-12-10T15:38:06.297Z,66.99
2022-12-10T15:41:35.261Z,66.71
2022-12-10T15:44:46.769Z,66.76
2022-12-10T15:47:48.267Z,66.85
2022-12-10T15:50:50.827Z,66.78
2022-12-10T15:53:52.345Z,66.55
2022-12-10T15:56:53.897Z,67.43
2022-12-10T15:59:58.593Z,66.90
2022-12-10T16:03:06.335Z,67.47
2022-12-10T16:06:07.767Z,67.51
2022-12-10T16:09:10.571Z,68.06
2022-12-10T16:12:14.136Z,68.09
2022-12-10T16:15:21.983Z,67.99
2022-12-10T16:18:23.415Z,68.00
2022-12-10T16:21:24.896Z,67.22
2022-12-10T16:24:26.339Z,67.07
2022-12-10T16:27:28.278Z,66.93
2022-12-10T16:30:38.842Z,67.17
2022-12-10T16:33:42.811Z,66.90
2022-12-10T16:36:44.235Z,67.04
2022-12-10T16:39:51.406Z,67.16
2022-12-10T16:42:56.031Z,67.96
2022-12-10T16:45:57.896Z,68.02
2022-12-10T16:48:59.456Z,68.14
2022-12-10T16:52:00.861Z,67.49
2022-12-10T16:55:03.141Z,67.38
2022-12-10T16:58:10.509Z,67.69
2022-12-10T17:01:16.798Z,67.67
2022-12-10T17:04:18.250Z,67.60
2022-12-10T17:07:20.862Z,66.92
2022-12-10T17:10:47.995Z,67.26
2022-12-10T17:13:49.462Z,67.51
2022-12-10T17:16:52.761Z,68.49
2022-12-10T17:19:54.226Z,68.12
2022-12-10T17:22:55.997Z,68.06
2022-12-10T17:25:58.296Z,67.77
2022-12-10T17:29:10.017Z,67.94
2022-12-10T17:32:14.949Z,68.04
2022-12-10T17:35:16.905Z,67.18
2022-12-10T17:38:22.001Z,67.44
2022-12-10T17:41:23.433Z,67.30
2022-12-10T17:44:24.916Z,66.97
2022-12-10T17:47:26.376Z,67.14
2022-12-10T17:50:34.683Z,67.38
2022-12-10T17:53:36.404Z,68.25
2022-12-10T17:56:38.081Z,67.78
2022-12-10T17:59:43.379Z,68.24
2022-12-10T18:02:44.859Z,67.85
2022-12-10T18:05:46.805Z,68.05
2022-12-10T18:08:49.688Z,68.85
2022-12-10T18:11:51.741Z,69.01
2022-12-10T18:14:53.127Z,69.07
2022-12-10T18:17:54.652Z,69.84
2022-12-10T18:20:56.117Z,69.01
2022-12-10T18:23:57.656Z,70.18
2022-12-10T18:26:59.249Z,69.38
2022-12-10T18:30:00.976Z,68.81
2022-12-10T18:33:02.423Z,68.98
2022-12-10T18:36:04.504Z,68.90
2022-12-10T18:39:21.863Z,69.81
2022-12-10T18:42:23.291Z,70.06
2022-12-10T18:45:24.777Z,70.64
2022-12-10T18:48:26.249Z,70.75
2022-12-10T18:51:27.942Z,70.53
2022-12-10T18:54:29.355Z,69.96
2022-12-10T18:57:34.168Z,69.58
2022-12-10T19:00:37.854Z,69.55
2022-12-10T19:03:43.465Z,69.62
2022-12-10T19:06:49.575Z,69.12
2022-12-10T19:09:52.600Z,68.98
2022-12-10T19:12:54.054Z,68.90
2022-12-10T19:15:55.631Z,68.60
2022-12-10T19:19:02.075Z,68.74
2022-12-10T19:22:04.069Z,68.53
2022-12-10T19:25:06.019Z,68.90
2022-12-10T19:28:07.636Z,68.74
2022-12-10T19:31:13.072Z,69.05
2022-12-10T19:34:16.438Z,68.68
2022-12-10T19:37:17.949Z,68.77
2022-12-10T19:40:23.542Z,67.77
2022-12-10T19:43:24.960Z,68.17
2022-12-10T19:46:27.500Z,68.96
2022-12-10T19:49:29.063Z,68.76
2022-12-10T19:52:30.490Z,68.96
2022-12-10T19:55:32.107Z,68.72
2022-12-10T19:58:33.532Z,68.97
2022-12-10T20:01:35.046Z,69.13
2022-12-10T20:04:36.547Z,69.64
2022-12-10T20:07:38.081Z,69.84
2022-12-10T20:10:39.574Z,70.30
2022-12-10T20:13:43.110Z,69.19
2022-12-10T20:16:46.383Z,68.92
2022-12-10T20:19:48.165Z,68.64
2022-12-10T20:22:50.411Z,68.80
2022-12-10T20:25:51.945Z,68.65
2022-12-10T20:28:53.423Z,68.37
2022-12-10T20:31:56.597Z,68.84
2022-12-10T20:34:58.212Z,68.94
2022-12-10T20:37:59.723Z,68.27
2022-12-10T20:41:01.191Z,68.06
2022-12-10T20:44:02.650Z,68.23
2022-12-10T20:47:09.670Z,68.16
2022-12-10T20:50:15.780Z,68.03
2022-12-10T20:53:17.401Z,67.84
2022-12-10T20:56:22.106Z,67.27
2022-12-10T20:59:23.977Z,66.44
2022-12-10T21:02:25.592Z,66.35
2022-12-10T21:05:26.997Z,66.11
2022-12-10T21:08:28.829Z,66.23
2022-12-10T21:11:30.355Z,66.48
2022-12-10T21:17:53.338Z,66.65
2022-12-10T21:20:55.805Z,67.35
2022-12-10T21:23:58.183Z,67.56
2022-12-10T21:26:59.613Z,67.56
2022-12-10T21:30:01.060Z,68.31
2022-12-10T21:33:02.681Z,67.74
2022-12-10T21:36:04.393Z,67.65
2022-12-10T21:39:05.922Z,67.99
2022-12-10T21:42:26.277Z,67.27
2022-12-10T21:45:31.531Z,67.93
2022-12-10T21:48:32.987Z,67.74
2022-12-10T21:51:39.545Z,68.59
2022-12-10T21:54:41.896Z,67.86
2022-12-10T21:57:43.345Z,67.50
2022-12-10T22:00:45.121Z,67.90
2022-12-10T22:03:47.149Z,68.17
2022-12-10T22:06:48.576Z,68.23
2022-12-10T22:09:50.795Z,67.80
2022-12-10T22:12:52.346Z,67.64
2022-12-10T22:15:53.866Z,67.45
2022-12-10T22:18:55.417Z,68.29
2022-12-10T22:21:56.841Z,68.46
2022-12-10T22:24:58.267Z,68.13
2022-12-10T22:27:59.723Z,68.13
2022-12-10T22:31:01.219Z,67.52
2022-12-10T22:34:02.849Z,67.76
2022-12-10T22:37:04.253Z,68.35
2022-12-10T22:40:07.295Z,68.60
2022-12-10T22:43:41.094Z,68.50
2022-12-10T22:46:30.681Z,67.85
2022-12-10T22:49:37.195Z,68.03
2022-12-10T22:52:40.362Z,67.95
2022-12-10T22:55:42.062Z,67.99
2022-12-10T22:58:44.300Z,68.19
2022-12-10T23:01:45.750Z,68.31
2022-12-10T23:04:53.339Z,67.47
2022-12-10T23:07:54.805Z,67.58
2022-12-10T23:10:56.508Z,67.45
2022-12-10T23:13:57.981Z,66.96
2022-12-10T23:16:59.591Z,67.33
2022-12-10T23:20:01.019Z,67.68
2022-12-10T23:23:02.512Z,67.72
2022-12-10T23:26:03.923Z,67.14
2022-12-10T23:29:05.772Z,66.83
2022-12-10T23:32:07.227Z,67.26
2022-12-10T23:35:09.565Z,67.76
2022-12-10T23:38:11.468Z,67.29
2022-12-10T23:41:12.889Z,67.23
2022-12-10T23:44:14.314Z,66.93
2022-12-10T23:47:15.703Z,66.76
2022-12-10T23:50:17.286Z,66.57
2022-12-10T23:53:19.332Z,66.70
2022-12-10T23:56:21.377Z,67.47
2022-12-10T23:59:22.805Z,67.55
